sensor_id;sensor_type;location;lat;lon;timestamp;pressure;altitude;pressure_sealevel;temperature;humidity
61128;BME280;47013;42.664;23.242;2023-01-30T00:00:10;94263.88;;;-0.74;84.74
61128;BME280;47013;42.664;23.242;2023-01-30T00:02:35;94262.78;;;-0.73;84.30
61128;BME280;47013;42.664;23.242;2023-01-30T00:05:01;94268.22;;;-0.69;85.15
61128;BME280;47013;42.664;23.242;2023-01-30T00:07:26;94261.78;;;-0.68;85.04
61128;BME280;47013;42.664;23.242;2023-01-30T00:09:51;94254.91;;;-0.69;84.18
61128;BME280;47013;42.664;23.242;2023-01-30T00:12:17;94249.91;;;-0.71;85.09
61128;BME280;47013;42.664;23.242;2023-01-30T00:14:45;94248.38;;;-0.72;85.26
61128;BME280;47013;42.664;23.242;2023-01-30T00:17:10;94254.84;;;-0.81;84.92
61128;BME280;47013;42.664;23.242;2023-01-30T00:19:35;94254.84;;;-0.81;85.37
61128;BME280;47013;42.664;23.242;2023-01-30T00:22:01;94260.00;;;-0.76;84.66
61128;BME280;47013;42.664;23.242;2023-01-30T00:24:26;94258.19;;;-0.84;83.48
61128;BME280;47013;42.664;23.242;2023-01-30T00:26:51;94257.19;;;-0.80;83.46
61128;BME280;47013;42.664;23.242;2023-01-30T00:29:16;94261.72;;;-0.80;83.53
61128;BME280;47013;42.664;23.242;2023-01-30T00:31:42;94267.50;;;-0.78;83.53
61128;BME280;47013;42.664;23.242;2023-01-30T00:34:07;94260.44;;;-0.74;83.86
61128;BME280;47013;42.664;23.242;2023-01-30T00:36:32;94254.03;;;-0.73;83.55
61128;BME280;47013;42.664;23.242;2023-01-30T00:38:57;94259.78;;;-0.71;83.10
61128;BME280;47013;42.664;23.242;2023-01-30T00:41:23;94262.34;;;-0.75;82.23
61128;BME280;47013;42.664;23.242;2023-01-30T00:43:48;94256.75;;;-0.82;83.21
61128;BME280;47013;42.664;23.242;2023-01-30T00:46:32;94254.72;;;-0.85;82.19
61128;BME280;47013;42.664;23.242;2023-01-30T00:49:16;94243.19;;;-0.89;81.94
61128;BME280;47013;42.664;23.242;2023-01-30T00:51:42;94242.75;;;-0.91;81.62
61128;BME280;47013;42.664;23.242;2023-01-30T00:54:07;94238.56;;;-1.01;82.04
61128;BME280;47013;42.664;23.242;2023-01-30T00:56:32;94233.59;;;-1.02;82.40
61128;BME280;47013;42.664;23.242;2023-01-30T00:58:58;94231.88;;;-1.07;81.60
61128;BME280;47013;42.664;23.242;2023-01-30T01:01:23;94235.50;;;-1.11;82.80
61128;BME280;47013;42.664;23.242;2023-01-30T01:03:48;94226.56;;;-1.07;83.61
61128;BME280;47013;42.664;23.242;2023-01-30T01:06:13;94224.81;;;-1.03;83.55
61128;BME280;47013;42.664;23.242;2023-01-30T01:08:39;94222.16;;;-1.03;82.55
61128;BME280;47013;42.664;23.242;2023-01-30T01:11:04;94229.38;;;-1.03;83.25
61128;BME280;47013;42.664;23.242;2023-01-30T01:13:29;94226.56;;;-1.07;82.35
61128;BME280;47013;42.664;23.242;2023-01-30T01:15:54;94226.56;;;-1.07;82.71
61128;BME280;47013;42.664;23.242;2023-01-30T01:18:20;94219.03;;;-1.05;83.50
61128;BME280;47013;42.664;23.242;2023-01-30T01:20:45;94224.94;;;-0.99;84.23
61128;BME280;47013;42.664;23.242;2023-01-30T01:23:10;94222.06;;;-0.94;84.27
61128;BME280;47013;42.664;23.242;2023-01-30T01:25:35;94219.22;;;-0.89;83.92
61128;BME280;47013;42.664;23.242;2023-01-30T01:28:00;94211.44;;;-0.94;82.54
61128;BME280;47013;42.664;23.242;2023-01-30T01:30:26;94215.66;;;-0.93;82.92
61128;BME280;47013;42.664;23.242;2023-01-30T01:32:51;94205.66;;;-0.96;83.87
61128;BME280;47013;42.664;23.242;2023-01-30T01:35:16;94204.56;;;-0.95;83.96
61128;BME280;47013;42.664;23.242;2023-01-30T01:37:43;94208.66;;;-0.98;83.63
61128;BME280;47013;42.664;23.242;2023-01-30T01:40:09;94203.19;;;-1.01;83.42
61128;BME280;47013;42.664;23.242;2023-01-30T01:42:58;94209.34;;;-1.09;83.64
61128;BME280;47013;42.664;23.242;2023-01-30T01:45:23;94206.97;;;-1.02;83.59
61128;BME280;47013;42.664;23.242;2023-01-30T01:53:09;94210.47;;;-1.10;83.97
61128;BME280;47013;42.664;23.242;2023-01-30T01:55:35;94208.59;;;-1.10;83.76
61128;BME280;47013;42.664;23.242;2023-01-30T01:58:12;94210.13;;;-1.09;83.48
61128;BME280;47013;42.664;23.242;2023-01-30T02:00:39;94201.38;;;-1.09;84.22
61128;BME280;47013;42.664;23.242;2023-01-30T02:03:05;94209.34;;;-1.09;84.01
61128;BME280;47013;42.664;23.242;2023-01-30T02:05:33;94213.25;;;-1.07;83.70
61128;BME280;47013;42.664;23.242;2023-01-30T02:10:35;94207.47;;;-1.09;83.96
61128;BME280;47013;42.664;23.242;2023-01-30T02:13:01;94213.69;;;-1.05;83.65
61128;BME280;47013;42.664;23.242;2023-01-30T02:15:27;94206.81;;;-1.06;83.28
61128;BME280;47013;42.664;23.242;2023-01-30T02:17:52;94212.13;;;-1.06;82.91
61128;BME280;47013;42.664;23.242;2023-01-30T02:20:20;94210.91;;;-1.08;82.88
61128;BME280;47013;42.664;23.242;2023-01-30T02:25:48;94215.53;;;-0.97;82.69
61128;BME280;47013;42.664;23.242;2023-01-30T02:41:13;94205.41;;;-1.03;82.55
61128;BME280;47013;42.664;23.242;2023-01-30T02:43:44;94203.84;;;-1.04;82.28
61128;BME280;47013;42.664;23.242;2023-01-30T02:46:11;94200.09;;;-1.03;82.22
61128;BME280;47013;42.664;23.242;2023-01-30T02:48:41;94193.34;;;-1.01;82.92
61128;BME280;47013;42.664;23.242;2023-01-30T02:51:10;94196.44;;;-0.99;82.82
61128;BME280;47013;42.664;23.242;2023-01-30T02:53:37;94196.31;;;-1.02;82.01
61128;BME280;47013;42.664;23.242;2023-01-30T02:56:02;94193.66;;;-1.02;82.44
61128;BME280;47013;42.664;23.242;2023-01-30T02:58:28;94200.28;;;-1.08;83.11
61128;BME280;47013;42.664;23.242;2023-01-30T03:08:47;94203.91;;;-1.13;82.65
61128;BME280;47013;42.664;23.242;2023-01-30T03:11:17;94200.47;;;-1.13;82.37
61128;BME280;47013;42.664;23.242;2023-01-30T03:13:52;94203.31;;;-1.19;82.17
61128;BME280;47013;42.664;23.242;2023-01-30T03:18:48;94191.00;;;-1.23;82.49
61128;BME280;47013;42.664;23.242;2023-01-30T03:21:13;94189.44;;;-1.24;83.60
61128;BME280;47013;42.664;23.242;2023-01-30T03:23:38;94186.31;;;-1.26;83.77
61128;BME280;47013;42.664;23.242;2023-01-30T03:26:04;94173.47;;;-1.24;82.92
61128;BME280;47013;42.664;23.242;2023-01-30T03:28:30;94174.38;;;-1.20;83.07
61128;BME280;47013;42.664;23.242;2023-01-30T03:30:56;94172.38;;;-1.23;82.72
61128;BME280;47013;42.664;23.242;2023-01-30T03:33:21;94161.16;;;-1.29;83.01
61128;BME280;47013;42.664;23.242;2023-01-30T03:35:46;94164.59;;;-1.28;83.43
61128;BME280;47013;42.664;23.242;2023-01-30T03:38:11;94158.84;;;-1.30;82.55
61128;BME280;47013;42.664;23.242;2023-01-30T03:40:37;94160.78;;;-1.39;83.18
61128;BME280;47013;42.664;23.242;2023-01-30T03:43:04;94165.16;;;-1.43;83.07
61128;BME280;47013;42.664;23.242;2023-01-30T03:45:29;94156.81;;;-1.54;83.17
61128;BME280;47013;42.664;23.242;2023-01-30T03:47:54;94161.19;;;-1.58;83.32
61128;BME280;47013;42.664;23.242;2023-01-30T03:50:19;94152.88;;;-1.57;83.13
61128;BME280;47013;42.664;23.242;2023-01-30T03:52:45;94153.38;;;-1.55;84.13
61128;BME280;47013;42.664;23.242;2023-01-30T03:55:10;94157.13;;;-1.56;83.61
61128;BME280;47013;42.664;23.242;2023-01-30T03:57:35;94154.47;;;-1.56;82.87
61128;BME280;47013;42.664;23.242;2023-01-30T04:00:01;94158.88;;;-1.60;83.05
61128;BME280;47013;42.664;23.242;2023-01-30T04:02:26;94160.41;;;-1.59;84.02
61128;BME280;47013;42.664;23.242;2023-01-30T04:04:51;94150.56;;;-1.58;83.12
61128;BME280;47013;42.664;23.242;2023-01-30T04:07:17;94163.22;;;-1.55;82.29
61128;BME280;47013;42.664;23.242;2023-01-30T04:09:42;94153.81;;;-1.53;82.98
61128;BME280;47013;42.664;23.242;2023-01-30T04:12:08;94150.06;;;-1.52;83.13
61128;BME280;47013;42.664;23.242;2023-01-30T04:14:33;94153.03;;;-1.53;83.49
61128;BME280;47013;42.664;23.242;2023-01-30T04:16:58;94147.72;;;-1.53;83.74
61128;BME280;47013;42.664;23.242;2023-01-30T04:19:23;94154.94;;;-1.54;83.45
61128;BME280;47013;42.664;23.242;2023-01-30T04:21:49;94161.03;;;-1.53;82.94
61128;BME280;47013;42.664;23.242;2023-01-30T04:24:14;94150.06;;;-1.52;83.46
61128;BME280;47013;42.664;23.242;2023-01-30T04:26:39;94152.59;;;-1.55;83.36
61128;BME280;47013;42.664;23.242;2023-01-30T04:29:04;94151.63;;;-1.51;83.26
61128;BME280;47013;42.664;23.242;2023-01-30T04:31:30;94155.16;;;-1.46;83.95
61128;BME280;47013;42.664;23.242;2023-01-30T04:33:55;94149.72;;;-1.50;83.73
61128;BME280;47013;42.664;23.242;2023-01-30T04:36:20;94142.19;;;-1.48;83.52
61128;BME280;47013;42.664;23.242;2023-01-30T04:38:45;94146.53;;;-1.43;83.20
61128;BME280;47013;42.664;23.242;2023-01-30T04:41:10;94145.59;;;-1.39;84.29
61128;BME280;47013;42.664;23.242;2023-01-30T04:43:36;94144.94;;;-1.36;83.81
61128;BME280;47013;42.664;23.242;2023-01-30T04:46:01;94143.72;;;-1.38;82.90
61128;BME280;47013;42.664;23.242;2023-01-30T04:48:26;94134.28;;;-1.36;82.65
61128;BME280;47013;42.664;23.242;2023-01-30T04:50:53;94140.44;;;-1.44;83.15
61128;BME280;47013;42.664;23.242;2023-01-30T04:53:18;94129.19;;;-1.41;82.74
61128;BME280;47013;42.664;23.242;2023-01-30T04:55:44;94127.94;;;-1.43;82.88
61128;BME280;47013;42.664;23.242;2023-01-30T04:58:10;94122.94;;;-1.45;82.92
61128;BME280;47013;42.664;23.242;2023-01-30T05:00:35;94122.16;;;-1.45;83.32
61128;BME280;47013;42.664;23.242;2023-01-30T05:03:00;94120.16;;;-1.49;82.90
61128;BME280;47013;42.664;23.242;2023-01-30T05:05:26;94115.56;;;-1.39;82.95
61128;BME280;47013;42.664;23.242;2023-01-30T05:07:53;94119.00;;;-1.39;83.05
61128;BME280;47013;42.664;23.242;2023-01-30T05:10:19;94115.72;;;-1.44;82.83
61128;BME280;47013;42.664;23.242;2023-01-30T05:12:44;94116.38;;;-1.48;82.62
61128;BME280;47013;42.664;23.242;2023-01-30T05:15:10;94112.22;;;-1.57;83.27
61128;BME280;47013;42.664;23.242;2023-01-30T05:17:35;94113.81;;;-1.56;84.16
61128;BME280;47013;42.664;23.242;2023-01-30T05:20:01;94118.94;;;-1.51;84.10
61128;BME280;47013;42.664;23.242;2023-01-30T05:22:26;94122.31;;;-1.42;84.89
61128;BME280;47013;42.664;23.242;2023-01-30T05:24:51;94129.63;;;-1.39;83.50
61128;BME280;47013;42.664;23.242;2023-01-30T05:27:17;94133.06;;;-1.38;83.34
61128;BME280;47013;42.664;23.242;2023-01-30T05:29:42;94136.50;;;-1.38;84.35
61128;BME280;47013;42.664;23.242;2023-01-30T05:32:09;94127.09;;;-1.35;83.54
61128;BME280;47013;42.664;23.242;2023-01-30T05:34:35;94136.63;;;-1.34;84.40
61128;BME280;47013;42.664;23.242;2023-01-30T05:37:01;94130.66;;;-1.31;83.83
61128;BME280;47013;42.664;23.242;2023-01-30T05:39:26;94134.41;;;-1.32;83.94
61128;BME280;47013;42.664;23.242;2023-01-30T05:41:51;94126.00;;;-1.34;83.68
61128;BME280;47013;42.664;23.242;2023-01-30T05:44:16;94132.53;;;-1.32;84.95
61128;BME280;47013;42.664;23.242;2023-01-30T05:46:42;94131.13;;;-1.29;85.03
61128;BME280;47013;42.664;23.242;2023-01-30T05:49:07;94131.56;;;-1.27;84.84
61128;BME280;47013;42.664;23.242;2023-01-30T05:51:32;94128.91;;;-1.27;84.58
61128;BME280;47013;42.664;23.242;2023-01-30T05:53:57;94134.22;;;-1.27;84.88
61128;BME280;47013;42.664;23.242;2023-01-30T05:56:23;94134.63;;;-1.37;83.68
61128;BME280;47013;42.664;23.242;2023-01-30T05:58:49;94142.94;;;-1.39;84.68
61128;BME280;47013;42.664;23.242;2023-01-30T06:01:15;94150.59;;;-1.37;84.67
61128;BME280;47013;42.664;23.242;2023-01-30T06:03:40;94147.13;;;-1.38;84.20
61128;BME280;47013;42.664;23.242;2023-01-30T06:06:05;94145.47;;;-1.42;83.68
61128;BME280;47013;42.664;23.242;2023-01-30T06:08:31;94141.69;;;-1.41;84.13
61128;BME280;47013;42.664;23.242;2023-01-30T06:11:00;94142.81;;;-1.42;84.45
61128;BME280;47013;42.664;23.242;2023-01-30T06:13:26;94140.72;;;-1.37;84.45
61128;BME280;47013;42.664;23.242;2023-01-30T06:15:51;94142.38;;;-1.32;83.96
61128;BME280;47013;42.664;23.242;2023-01-30T06:18:17;94135.84;;;-1.35;83.64
61128;BME280;47013;42.664;23.242;2023-01-30T06:20:46;94138.19;;;-1.33;83.33
61128;BME280;47013;42.664;23.242;2023-01-30T06:23:12;94129.19;;;-1.41;83.88
61128;BME280;47013;42.664;23.242;2023-01-30T06:25:37;94134.22;;;-1.48;83.17
61128;BME280;47013;42.664;23.242;2023-01-30T06:28:02;94127.94;;;-1.43;83.55
61128;BME280;47013;42.664;23.242;2023-01-30T06:30:27;94131.25;;;-1.46;84.40
61128;BME280;47013;42.664;23.242;2023-01-30T06:32:53;94131.25;;;-1.46;84.37
61128;BME280;47013;42.664;23.242;2023-01-30T06:35:18;94130.59;;;-1.43;85.14
61128;BME280;47013;42.664;23.242;2023-01-30T06:37:43;94133.19;;;-1.35;84.55
61128;BME280;47013;42.664;23.242;2023-01-30T06:40:09;94129.56;;;-1.30;84.07
61128;BME280;47013;42.664;23.242;2023-01-30T06:42:34;94134.22;;;-1.27;84.36
61128;BME280;47013;42.664;23.242;2023-01-30T06:45:00;94140.00;;;-1.25;83.87
61128;BME280;47013;42.664;23.242;2023-01-30T06:47:25;94131.13;;;-1.29;83.62
61128;BME280;47013;42.664;23.242;2023-01-30T06:49:50;94132.69;;;-1.28;83.51
61128;BME280;47013;42.664;23.242;2023-01-30T06:52:15;94140.44;;;-1.23;83.97
61128;BME280;47013;42.664;23.242;2023-01-30T06:54:41;94140.78;;;-1.25;84.55
61128;BME280;47013;42.664;23.242;2023-01-30T06:57:06;94143.38;;;-1.16;85.13
61128;BME280;47013;42.664;23.242;2023-01-30T06:59:31;94141.94;;;-1.13;86.22
61128;BME280;47013;42.664;23.242;2023-01-30T07:01:57;94142.06;;;-1.10;85.63
61128;BME280;47013;42.664;23.242;2023-01-30T07:04:22;94147.00;;;-1.21;86.23
61128;BME280;47013;42.664;23.242;2023-01-30T07:06:47;94149.66;;;-1.21;86.73
61128;BME280;47013;42.664;23.242;2023-01-30T07:09:13;94153.88;;;-1.20;85.99
61128;BME280;47013;42.664;23.242;2023-01-30T07:11:39;94152.31;;;-1.21;85.37
61128;BME280;47013;42.664;23.242;2023-01-30T07:14:04;94152.59;;;-1.13;84.86
61128;BME280;47013;42.664;23.242;2023-01-30T07:16:29;94152.91;;;-1.15;85.13
61128;BME280;47013;42.664;23.242;2023-01-30T07:18:55;94156.69;;;-1.16;84.20
61128;BME280;47013;42.664;23.242;2023-01-30T07:21:22;94153.81;;;-1.11;84.85
61128;BME280;47013;42.664;23.242;2023-01-30T07:23:47;94154.13;;;-1.12;84.01
61128;BME280;47013;42.664;23.242;2023-01-30T07:26:12;94156.34;;;-1.14;83.29
61128;BME280;47013;42.664;23.242;2023-01-30T07:28:38;94155.25;;;-1.13;84.12
61128;BME280;47013;42.664;23.242;2023-01-30T07:31:03;94152.53;;;-0.93;94.16
61128;BME280;47013;42.664;23.242;2023-01-30T07:33:28;94166.19;;;-0.94;84.35
61128;BME280;47013;42.664;23.242;2023-01-30T07:35:54;94161.53;;;-0.97;82.53
61128;BME280;47013;42.664;23.242;2023-01-30T07:38:19;94171.94;;;-0.92;83.39
61128;BME280;47013;42.664;23.242;2023-01-30T07:40:44;94175.28;;;-0.95;83.36
61128;BME280;47013;42.664;23.242;2023-01-30T07:43:10;94180.59;;;-0.95;83.92
61128;BME280;47013;42.664;23.242;2023-01-30T07:45:37;94176.06;;;-0.95;83.95
61128;BME280;47013;42.664;23.242;2023-01-30T07:48:03;94172.28;;;-0.94;84.76
61128;BME280;47013;42.664;23.242;2023-01-30T07:50:29;94174.16;;;-0.94;85.13
61128;BME280;47013;42.664;23.242;2023-01-30T07:52:54;94177.59;;;-0.94;84.17
61128;BME280;47013;42.664;23.242;2023-01-30T07:55:19;94171.38;;;-0.98;84.91
61128;BME280;47013;42.664;23.242;2023-01-30T07:57:45;94171.38;;;-0.98;85.75
61128;BME280;47013;42.664;23.242;2023-01-30T08:00:10;94158.19;;;-0.94;85.90
61128;BME280;47013;42.664;23.242;2023-01-30T08:02:36;94149.25;;;-0.90;85.66
61128;BME280;47013;42.664;23.242;2023-01-30T08:05:01;94137.94;;;-0.86;85.87
61128;BME280;47013;42.664;23.242;2023-01-30T08:07:27;94138.13;;;-0.92;84.28
61128;BME280;47013;42.664;23.242;2023-01-30T08:09:52;94138.00;;;-0.95;83.85
61128;BME280;47013;42.664;23.242;2023-01-30T08:12:17;94137.56;;;-0.97;85.18
61128;BME280;47013;42.664;23.242;2023-01-30T08:14:42;94137.19;;;-1.08;85.26
61128;BME280;47013;42.664;23.242;2023-01-30T08:17:08;94136.09;;;-1.07;84.94
61128;BME280;47013;42.664;23.242;2023-01-30T08:19:33;94130.31;;;-1.09;84.67
61128;BME280;47013;42.664;23.242;2023-01-30T08:21:58;94133.75;;;-1.08;84.48
61128;BME280;47013;42.664;23.242;2023-01-30T08:24:23;94137.97;;;-1.07;84.27
61128;BME280;47013;42.664;23.242;2023-01-30T08:26:49;94131.19;;;-1.05;84.53
61128;BME280;47013;42.664;23.242;2023-01-30T08:29:14;94127.25;;;-0.99;84.88
61128;BME280;47013;42.664;23.242;2023-01-30T08:31:40;94125.94;;;-0.93;85.03
61128;BME280;47013;42.664;23.242;2023-01-30T08:34:05;94121.09;;;-0.91;84.39
61128;BME280;47013;42.664;23.242;2023-01-30T08:36:30;94116.97;;;-0.88;84.28
61128;BME280;47013;42.664;23.242;2023-01-30T08:38:55;94113.91;;;-0.78;83.83
61128;BME280;47013;42.664;23.242;2023-01-30T08:41:21;94116.00;;;-0.71;82.16
61128;BME280;47013;42.664;23.242;2023-01-30T08:43:46;94123.06;;;-0.87;80.58
61128;BME280;47013;42.664;23.242;2023-01-30T08:46:11;94115.22;;;-0.84;80.18
61128;BME280;47013;42.664;23.242;2023-01-30T08:48:36;94113.22;;;-0.87;78.95
61128;BME280;47013;42.664;23.242;2023-01-30T08:51:04;94108.09;;;-0.80;79.71
61128;BME280;47013;42.664;23.242;2023-01-30T08:53:29;94110.59;;;-0.75;78.75
61128;BME280;47013;42.664;23.242;2023-01-30T08:55:54;94113.34;;;-0.71;78.73
61128;BME280;47013;42.664;23.242;2023-01-30T08:58:20;94107.91;;;-0.75;78.16
61128;BME280;47013;42.664;23.242;2023-01-30T09:00:46;94103.38;;;-0.74;77.99
61128;BME280;47013;42.664;23.242;2023-01-30T09:03:12;94100.03;;;-0.71;78.44
61128;BME280;47013;42.664;23.242;2023-01-30T09:05:37;94092.38;;;-0.73;78.24
61128;BME280;47013;42.664;23.242;2023-01-30T09:08:02;94092.75;;;-0.50;85.47
61128;BME280;47013;42.664;23.242;2023-01-30T09:10:28;94086.66;;;-0.63;78.85
61128;BME280;47013;42.664;23.242;2023-01-30T09:12:54;94088.44;;;-0.18;91.24
61128;BME280;47013;42.664;23.242;2023-01-30T09:15:19;94090.00;;;-0.17;86.54
61128;BME280;47013;42.664;23.242;2023-01-30T09:17:44;94098.09;;;-0.13;79.31
61128;BME280;47013;42.664;23.242;2023-01-30T09:20:10;94095.00;;;-0.15;76.88
61128;BME280;47013;42.664;23.242;2023-01-30T09:22:36;94088.22;;;-0.25;76.24
61128;BME280;47013;42.664;23.242;2023-01-30T09:25:01;94091.53;;;-0.28;75.58
61128;BME280;47013;42.664;23.242;2023-01-30T09:27:26;94091.09;;;-0.30;76.74
61128;BME280;47013;42.664;23.242;2023-01-30T09:29:52;94083.34;;;-0.23;76.92
61128;BME280;47013;42.664;23.242;2023-01-30T09:32:17;94090.31;;;-0.18;75.79
61128;BME280;47013;42.664;23.242;2023-01-30T09:34:42;94091.53;;;-0.16;76.69
61128;BME280;47013;42.664;23.242;2023-01-30T09:37:07;94084.31;;;-0.15;75.22
61128;BME280;47013;42.664;23.242;2023-01-30T09:39:32;94090.66;;;-0.20;75.33
61128;BME280;47013;42.664;23.242;2023-01-30T09:47:18;94076.22;;;-0.19;75.91
61128;BME280;47013;42.664;23.242;2023-01-30T09:50:10;94071.56;;;-0.22;75.62
61128;BME280;47013;42.664;23.242;2023-01-30T09:55:16;94068.13;;;-0.22;75.54
61128;BME280;47013;42.664;23.242;2023-01-30T09:57:42;94062.13;;;-0.19;75.03
61128;BME280;47013;42.664;23.242;2023-01-30T10:00:21;94058.16;;;-0.38;74.33
61128;BME280;47013;42.664;23.242;2023-01-30T10:05:17;94053.16;;;-0.51;75.28
61128;BME280;47013;42.664;23.242;2023-01-30T10:10:23;94039.38;;;-0.53;76.26
61128;BME280;47013;42.664;23.242;2023-01-30T10:18:24;94030.16;;;-0.56;81.84
61128;BME280;47013;42.664;23.242;2023-01-30T10:26:22;94013.06;;;-0.67;81.89
61128;BME280;47013;42.664;23.242;2023-01-30T10:31:18;94008.41;;;-0.82;82.53
61128;BME280;47013;42.664;23.242;2023-01-30T10:34:02;93996.00;;;-0.91;83.75
61128;BME280;47013;42.664;23.242;2023-01-30T10:38:58;93982.22;;;-0.93;83.75
61128;BME280;47013;42.664;23.242;2023-01-30T10:43:56;93968.03;;;-0.97;83.89
61128;BME280;47013;42.664;23.242;2023-01-30T10:46:26;93963.47;;;-0.96;84.35
61128;BME280;47013;42.664;23.242;2023-01-30T10:51:29;93956.59;;;-0.73;86.31
61128;BME280;47013;42.664;23.242;2023-01-30T10:56:34;93945.72;;;-0.80;83.39
61128;BME280;47013;42.664;23.242;2023-01-30T10:59:22;93934.75;;;-0.78;83.88
61128;BME280;47013;42.664;23.242;2023-01-30T11:01:50;93937.31;;;-0.82;84.04
61128;BME280;47013;42.664;23.242;2023-01-30T11:04:21;93931.66;;;-0.80;82.74
61128;BME280;47013;42.664;23.242;2023-01-30T11:06:49;93919.09;;;-0.80;84.02
61128;BME280;47013;42.664;23.242;2023-01-30T11:09:16;93923.00;;;-0.65;83.54
61128;BME280;47013;42.664;23.242;2023-01-30T11:11:46;93919.53;;;-0.66;81.88
61128;BME280;47013;42.664;23.242;2023-01-30T11:14:12;93909.56;;;-0.69;81.63
61128;BME280;47013;42.664;23.242;2023-01-30T11:19:07;93896.69;;;-0.79;82.03
61128;BME280;47013;42.664;23.242;2023-01-30T11:21:33;93900.69;;;-0.73;81.51
61128;BME280;47013;42.664;23.242;2023-01-30T11:24:02;93890.59;;;-0.67;81.39
61128;BME280;47013;42.664;23.242;2023-01-30T11:26:29;93888.59;;;-0.58;80.89
61128;BME280;47013;42.664;23.242;2023-01-30T11:28:56;93882.38;;;-0.62;80.31
61128;BME280;47013;42.664;23.242;2023-01-30T11:31:25;93880.94;;;-0.60;80.54
61128;BME280;47013;42.664;23.242;2023-01-30T11:36:35;93878.81;;;-0.54;79.69
61128;BME280;47013;42.664;23.242;2023-01-30T11:41:25;93865.91;;;-0.40;80.00
61128;BME280;47013;42.664;23.242;2023-01-30T11:43:50;93859.66;;;-0.32;78.47
61128;BME280;47013;42.664;23.242;2023-01-30T11:46:23;93857.44;;;-0.30;77.54
61128;BME280;47013;42.664;23.242;2023-01-30T11:48:49;93843.59;;;-0.35;74.02
61128;BME280;47013;42.664;23.242;2023-01-30T11:51:18;93849.00;;;-0.32;74.26
61128;BME280;47013;42.664;23.242;2023-01-30T11:53:44;93836.47;;;-0.31;73.85
61128;BME280;47013;42.664;23.242;2023-01-30T11:58:42;93832.69;;;-0.30;73.04
61128;BME280;47013;42.664;23.242;2023-01-30T12:01:13;93827.00;;;-0.28;72.04
61128;BME280;47013;42.664;23.242;2023-01-30T12:03:44;93824.91;;;-0.23;73.76
61128;BME280;47013;42.664;23.242;2023-01-30T12:06:11;93817.34;;;-0.21;73.02
61128;BME280;47013;42.664;23.242;2023-01-30T12:08:44;93807.63;;;-0.13;74.05
61128;BME280;47013;42.664;23.242;2023-01-30T12:14:26;93801.03;;;-0.04;71.58
61128;BME280;47013;42.664;23.242;2023-01-30T12:19:45;93799.47;;;-0.05;72.19
61128;BME280;47013;42.664;23.242;2023-01-30T12:27:12;93789.50;;;-0.08;71.75
61128;BME280;47013;42.664;23.242;2023-01-30T12:29:49;93785.59;;;0.02;72.10
61128;BME280;47013;42.664;23.242;2023-01-30T12:32:19;93781.69;;;-0.01;70.39
61128;BME280;47013;42.664;23.242;2023-01-30T12:34:46;93773.38;;;0.01;70.30
61128;BME280;47013;42.664;23.242;2023-01-30T12:47:18;93769.16;;;0.32;70.05
61128;BME280;47013;42.664;23.242;2023-01-30T12:52:41;93754.72;;;0.33;68.92
61128;BME280;47013;42.664;23.242;2023-01-30T13:00:31;93743.28;;;0.32;70.57
61128;BME280;47013;42.664;23.242;2023-01-30T13:05:46;93745.94;;;0.32;69.81
61128;BME280;47013;42.664;23.242;2023-01-30T13:08:22;93745.88;;;0.28;69.44
61128;BME280;47013;42.664;23.242;2023-01-30T13:11:02;93740.41;;;0.25;70.43
61128;BME280;47013;42.664;23.242;2023-01-30T13:13:33;93749.38;;;0.17;70.17
61128;BME280;47013;42.664;23.242;2023-01-30T13:26:12;93735.97;;;0.13;71.29
61128;BME280;47013;42.664;23.242;2023-01-30T13:28:45;93732.78;;;0.08;70.96
61128;BME280;47013;42.664;23.242;2023-01-30T13:31:14;93724.84;;;0.11;71.49
61128;BME280;47013;42.664;23.242;2023-01-30T13:33:41;93719.03;;;0.06;70.10
61128;BME280;47013;42.664;23.242;2023-01-30T13:36:23;93723.94;;;0.04;71.18
61128;BME280;47013;42.664;23.242;2023-01-30T13:39:01;93713.78;;;-0.07;70.87
61128;BME280;47013;42.664;23.242;2023-01-30T13:41:37;93712.31;;;-0.04;71.07
61128;BME280;47013;42.664;23.242;2023-01-30T13:44:06;93703.63;;;-0.01;71.67
61128;BME280;47013;42.664;23.242;2023-01-30T13:46:37;93696.59;;;-0.09;71.77
61128;BME280;47013;42.664;23.242;2023-01-30T13:51:45;93706.13;;;-0.08;70.91
61128;BME280;47013;42.664;23.242;2023-01-30T13:54:36;93697.63;;;0.02;71.15
61128;BME280;47013;42.664;23.242;2023-01-30T14:07:17;93700.44;;;-0.07;71.48
61128;BME280;47013;42.664;23.242;2023-01-30T14:09:50;93697.34;;;-0.09;70.81
61128;BME280;47013;42.664;23.242;2023-01-30T14:12:25;93698.97;;;-0.04;70.76
61128;BME280;47013;42.664;23.242;2023-01-30T14:14:59;93701.84;;;0.03;70.92
61128;BME280;47013;42.664;23.242;2023-01-30T14:17:26;93705.28;;;0.04;70.58
61128;BME280;47013;42.664;23.242;2023-01-30T14:19:58;93701.66;;;-0.04;70.50
61128;BME280;47013;42.664;23.242;2023-01-30T14:22:35;93699.75;;;-0.04;70.35
61128;BME280;47013;42.664;23.242;2023-01-30T14:27:47;93706.28;;;-0.01;70.79
61128;BME280;47013;42.664;23.242;2023-01-30T14:32:54;93708.53;;;-0.03;71.50
61128;BME280;47013;42.664;23.242;2023-01-30T14:35:21;93706.56;;;-0.06;70.73
61128;BME280;47013;42.664;23.242;2023-01-30T14:37:48;93704.50;;;-0.13;71.82
61128;BME280;47013;42.664;23.242;2023-01-30T14:43:25;93700.19;;;-0.17;72.22
61128;BME280;47013;42.664;23.242;2023-01-30T14:53:57;93674.22;;;-0.20;72.48
61128;BME280;47013;42.664;23.242;2023-01-30T14:56:31;93671.22;;;-0.19;72.70
61128;BME280;47013;42.664;23.242;2023-01-30T14:59:01;93659.88;;;-0.16;72.73
61128;BME280;47013;42.664;23.242;2023-01-30T15:01:51;93664.63;;;-0.25;72.35
61128;BME280;47013;42.664;23.242;2023-01-30T15:04:13;93664.16;;;-0.27;72.62
61128;BME280;47013;42.664;23.242;2023-01-30T15:06:39;93659.44;;;-0.34;71.22
61128;BME280;47013;42.664;23.242;2023-01-30T15:09:05;93667.16;;;-0.44;71.58
61128;BME280;47013;42.664;23.242;2023-01-30T15:11:31;93664.84;;;-0.46;71.72
61128;BME280;47013;42.664;23.242;2023-01-30T15:16:57;93664.00;;;-0.50;72.50
61128;BME280;47013;42.664;23.242;2023-01-30T15:34:19;93677.47;;;-1.14;80.54
61128;BME280;47013;42.664;23.242;2023-01-30T15:36:44;93676.81;;;-1.24;81.10
61128;BME280;47013;42.664;23.242;2023-01-30T15:39:19;93684.91;;;-1.20;80.69